sensor_id;sensor_type;location;lat;lon;timestamp;pressure;altitude;pressure_sealevel;temperature;humidity
78890;BME280;68279;48.964;14.502;2023-06-14T00:01:58;96738.75;;;8.97;88.39
78890;BME280;68279;48.964;14.502;2023-06-14T00:04:23;96733.47;;;8.92;89.13
78890;BME280;68279;48.964;14.502;2023-06-14T00:06:50;96733.47;;;8.92;91.10
78890;BME280;68279;48.964;14.502;2023-06-14T00:09:17;96731.81;;;8.96;91.64
78890;BME280;68279;48.964;14.502;2023-06-14T00:11:44;96743.22;;;9.07;93.43
78890;BME280;68279;48.964;14.502;2023-06-14T00:14:11;96738.97;;;9.01;92.60
78890;BME280;68279;48.964;14.502;2023-06-14T00:16:37;96732.47;;;8.78;93.47
78890;BME280;68279;48.964;14.502;2023-06-14T00:19:06;96731.41;;;8.74;94.93
78890;BME280;68279;48.964;14.502;2023-06-14T00:21:31;96737.91;;;8.58;95.35
78890;BME280;68279;48.964;14.502;2023-06-14T00:23:58;96732.59;;;8.47;95.47
78890;BME280;68279;48.964;14.502;2023-06-14T00:26:24;96727.59;;;8.36;95.71
78890;BME280;68279;48.964;14.502;2023-06-14T00:28:53;96733.16;;;8.44;96.88
78890;BME280;68279;48.964;14.502;2023-06-14T00:31:19;96728.72;;;8.79;97.25
78890;BME280;68279;48.964;14.502;2023-06-14T00:33:47;96732.41;;;8.88;97.25
78890;BME280;68279;48.964;14.502;2023-06-14T00:36:15;96726.28;;;8.83;96.95
78890;BME280;68279;48.964;14.502;2023-06-14T00:38:46;96727.72;;;8.65;97.57
78890;BME280;68279;48.964;14.502;2023-06-14T00:41:13;96732.31;;;8.59;97.37
78890;BME280;68279;48.964;14.502;2023-06-14T00:43:39;96730.78;;;8.38;97.86
78890;BME280;68279;48.964;14.502;2023-06-14T00:46:06;96741.72;;;8.26;98.38
78890;BME280;68279;48.964;14.502;2023-06-14T00:48:36;96731.34;;;8.24;98.89
78890;BME280;68279;48.964;14.502;2023-06-14T00:51:02;96732.97;;;8.10;98.24
78890;BME280;68279;48.964;14.502;2023-06-14T00:53:30;96743.13;;;8.08;98.94
78890;BME280;68279;48.964;14.502;2023-06-14T00:55:59;96740.75;;;7.97;98.83
78890;BME280;68279;48.964;14.502;2023-06-14T00:58:26;96727.47;;;7.81;98.81
78890;BME280;68279;48.964;14.502;2023-06-14T01:00:54;96730.13;;;7.76;99.29
78890;BME280;68279;48.964;14.502;2023-06-14T01:03:20;96728.00;;;7.68;99.30
78890;BME280;68279;48.964;14.502;2023-06-14T01:06:03;96731.13;;;8.11;98.97
78890;BME280;68279;48.964;14.502;2023-06-14T01:11:16;96733.59;;;7.82;99.52
78890;BME280;68279;48.964;14.502;2023-06-14T01:13:46;96721.91;;;7.73;99.19
78890;BME280;68279;48.964;14.502;2023-06-14T01:16:14;96717.13;;;7.54;97.97
78890;BME280;68279;48.964;14.502;2023-06-14T01:18:41;96721.66;;;7.54;98.37
78890;BME280;68279;48.964;14.502;2023-06-14T01:21:25;96720.06;;;7.48;98.90
78890;BME280;68279;48.964;14.502;2023-06-14T01:23:52;96721.41;;;7.40;98.49
78890;BME280;68279;48.964;14.502;2023-06-14T01:26:23;96729.66;;;7.38;99.06
78890;BME280;68279;48.964;14.502;2023-06-14T01:28:52;96725.38;;;7.32;99.91
78890;BME280;68279;48.964;14.502;2023-06-14T01:31:24;96723.25;;;7.14;99.41
78890;BME280;68279;48.964;14.502;2023-06-14T01:33:51;96720.06;;;7.07;99.09
78890;BME280;68279;48.964;14.502;2023-06-14T01:36:20;96718.22;;;7.07;99.14
78890;BME280;68279;48.964;14.502;2023-06-14T01:38:50;96718.72;;;6.89;98.81
78890;BME280;68279;48.964;14.502;2023-06-14T01:41:17;96720.03;;;6.87;98.52
78890;BME280;68279;48.964;14.502;2023-06-14T01:43:44;96718.47;;;6.91;99.14
78890;BME280;68279;48.964;14.502;2023-06-14T01:46:11;96716.88;;;7.10;99.88
78890;BME280;68279;48.964;14.502;2023-06-14T01:48:39;96720.09;;;7.17;98.55
78890;BME280;68279;48.964;14.502;2023-06-14T01:51:06;96724.59;;;7.37;98.38
78890;BME280;68279;48.964;14.502;2023-06-14T01:53:32;96724.06;;;7.35;97.94
78890;BME280;68279;48.964;14.502;2023-06-14T01:55:57;96734.72;;;7.25;97.99
78890;BME280;68279;48.964;14.502;2023-06-14T01:58:24;96731.25;;;7.19;97.90
78890;BME280;68279;48.964;14.502;2023-06-14T02:00:49;96725.41;;;7.17;97.73
78890;BME280;68279;48.964;14.502;2023-06-14T02:03:16;96730.19;;;7.20;98.60
78890;BME280;68279;48.964;14.502;2023-06-14T02:05:42;96723.00;;;7.31;98.81
78890;BME280;68279;48.964;14.502;2023-06-14T02:08:08;96723.25;;;7.24;99.44
78890;BME280;68279;48.964;14.502;2023-06-14T02:10:34;96723.50;;;6.97;99.46
78890;BME280;68279;48.964;14.502;2023-06-14T02:13:00;96719.81;;;7.19;99.81
78890;BME280;68279;48.964;14.502;2023-06-14T02:15:26;96724.31;;;7.23;99.48
78890;BME280;68279;48.964;14.502;2023-06-14T02:18:01;96720.34;;;7.31;99.09
78890;BME280;68279;48.964;14.502;2023-06-14T02:20:27;96720.59;;;7.39;99.55
78890;BME280;68279;48.964;14.502;2023-06-14T02:22:53;96727.78;;;7.39;99.22
78890;BME280;68279;48.964;14.502;2023-06-14T02:25:19;96729.66;;;7.44;99.57
78890;BME280;68279;48.964;14.502;2023-06-14T02:27:45;96733.38;;;7.48;99.55
78890;BME280;68279;48.964;14.502;2023-06-14T02:30:11;96733.09;;;7.49;97.87
78890;BME280;68279;48.964;14.502;2023-06-14T02:32:37;96735.25;;;7.52;97.66
78890;BME280;68279;48.964;14.502;2023-06-14T02:35:03;96747.19;;;7.50;97.06
78890;BME280;68279;48.964;14.502;2023-06-14T02:37:29;96738.69;;;7.48;96.81
78890;BME280;68279;48.964;14.502;2023-06-14T02:39:56;96740.00;;;7.40;98.22
78890;BME280;68279;48.964;14.502;2023-06-14T02:42:21;96741.34;;;7.37;99.17
78890;BME280;68279;48.964;14.502;2023-06-14T02:44:47;96745.34;;;7.35;100.00
78890;BME280;68279;48.964;14.502;2023-06-14T02:47:17;96749.84;;;7.09;99.56
78890;BME280;68279;48.964;14.502;2023-06-14T02:49:43;96745.59;;;7.08;100.00
78890;BME280;68279;48.964;14.502;2023-06-14T02:52:08;96745.84;;;6.91;100.00
78890;BME280;68279;48.964;14.502;2023-06-14T02:54:34;96746.34;;;6.83;100.00
78890;BME280;68279;48.964;14.502;2023-06-14T02:57:00;96746.31;;;6.68;100.00
78890;BME280;68279;48.964;14.502;2023-06-14T02:59:25;96749.22;;;6.56;100.00
78890;BME280;68279;48.964;14.502;2023-06-14T03:01:51;96743.31;;;6.44;100.00
78890;BME280;68279;48.964;14.502;2023-06-14T03:04:17;96748.63;;;6.39;100.00
78890;BME280;68279;48.964;14.502;2023-06-14T03:06:43;96750.47;;;6.38;100.00
78890;BME280;68279;48.964;14.502;2023-06-14T03:09:09;96746.41;;;6.25;100.00
78890;BME280;68279;48.964;14.502;2023-06-14T03:11:35;96754.19;;;6.42;100.00
78890;BME280;68279;48.964;14.502;2023-06-14T03:14:01;96747.28;;;6.36;100.00
78890;BME280;68279;48.964;14.502;2023-06-14T03:16:29;96747.53;;;6.30;100.00
78890;BME280;68279;48.964;14.502;2023-06-14T03:18:55;96752.28;;;6.28;100.00
78890;BME280;68279;48.964;14.502;2023-06-14T03:21:21;96751.19;;;6.23;100.00
78890;BME280;68279;48.964;14.502;2023-06-14T03:23:47;96742.69;;;6.21;100.00
78890;BME280;68279;48.964;14.502;2023-06-14T03:26:14;96747.47;;;6.24;100.00
78890;BME280;68279;48.964;14.502;2023-06-14T03:28:46;96753.31;;;6.27;100.00
78890;BME280;68279;48.964;14.502;2023-06-14T03:31:12;96751.28;;;6.44;100.00
78890;BME280;68279;48.964;14.502;2023-06-14T03:33:38;96756.38;;;6.56;100.00
78890;BME280;68279;48.964;14.502;2023-06-14T03:36:04;96755.06;;;6.58;100.00
78890;BME280;68279;48.964;14.502;2023-06-14T03:38:30;96756.66;;;6.54;100.00
78890;BME280;68279;48.964;14.502;2023-06-14T03:40:56;96769.94;;;6.54;100.00
78890;BME280;68279;48.964;14.502;2023-06-14T03:43:21;96762.72;;;6.49;100.00
78890;BME280;68279;48.964;14.502;2023-06-14T03:45:47;96766.72;;;6.47;100.00
78890;BME280;68279;48.964;14.502;2023-06-14T03:48:13;96766.97;;;6.45;100.00
78890;BME280;68279;48.964;14.502;2023-06-14T03:50:39;96769.38;;;6.47;100.00
78890;BME280;68279;48.964;14.502;2023-06-14T03:53:06;96777.38;;;6.57;100.00
78890;BME280;68279;48.964;14.502;2023-06-14T03:55:31;96776.56;;;6.62;100.00
78890;BME280;68279;48.964;14.502;2023-06-14T03:57:59;96780.59;;;6.64;100.00
78890;BME280;68279;48.964;14.502;2023-06-14T04:00:25;96776.59;;;6.67;100.00
78890;BME280;68279;48.964;14.502;2023-06-14T04:02:51;96781.13;;;6.71;100.00
78890;BME280;68279;48.964;14.502;2023-06-14T04:05:17;96785.44;;;6.82;100.00
78890;BME280;68279;48.964;14.502;2023-06-14T04:07:45;96783.59;;;6.93;100.00
78890;BME280;68279;48.964;14.502;2023-06-14T04:10:12;96789.72;;;6.99;100.00
78890;BME280;68279;48.964;14.502;2023-06-14T04:12:38;96796.41;;;7.27;100.00
78890;BME280;68279;48.964;14.502;2023-06-14T04:15:04;96797.50;;;7.51;100.00
78890;BME280;68279;48.964;14.502;2023-06-14T04:17:37;96797.75;;;7.65;100.00
78890;BME280;68279;48.964;14.502;2023-06-14T04:20:04;96790.84;;;7.79;100.00
78890;BME280;68279;48.964;14.502;2023-06-14T04:22:31;96804.41;;;7.88;100.00
78890;BME280;68279;48.964;14.502;2023-06-14T04:24:57;96808.41;;;7.95;100.00
78890;BME280;68279;48.964;14.502;2023-06-14T04:27:23;96807.03;;;8.08;100.00
78890;BME280;68279;48.964;14.502;2023-06-14T04:29:54;96797.69;;;8.21;100.00
78890;BME280;68279;48.964;14.502;2023-06-14T04:32:25;96807.78;;;8.29;100.00
78890;BME280;68279;48.964;14.502;2023-06-14T04:34:55;96805.66;;;8.41;100.00
78890;BME280;68279;48.964;14.502;2023-06-14T04:37:22;96807.75;;;8.55;100.00
78890;BME280;68279;48.964;14.502;2023-06-14T04:39:49;96813.56;;;8.67;100.00
78890;BME280;68279;48.964;14.502;2023-06-14T04:42:15;96817.22;;;8.86;100.00
78890;BME280;68279;48.964;14.502;2023-06-14T04:44:44;96817.44;;;8.95;98.79
78890;BME280;68279;48.964;14.502;2023-06-14T04:47:10;96819.81;;;9.01;96.88
78890;BME280;68279;48.964;14.502;2023-06-14T04:49:38;96830.16;;;9.08;96.14
78890;BME280;68279;48.964;14.502;2023-06-14T04:52:06;96827.19;;;9.20;95.88
78890;BME280;68279;48.964;14.502;2023-06-14T04:54:31;96826.06;;;9.26;95.32
78890;BME280;68279;48.964;14.502;2023-06-14T04:56:59;96826.56;;;9.33;95.37
78890;BME280;68279;48.964;14.502;2023-06-14T04:59:25;96828.88;;;9.45;95.51
78890;BME280;68279;48.964;14.502;2023-06-14T05:01:51;96826.41;;;9.53;95.88
78890;BME280;68279;48.964;14.502;2023-06-14T05:04:18;96822.34;;;9.61;94.82
78890;BME280;68279;48.964;14.502;2023-06-14T05:06:46;96828.38;;;9.77;94.03
78890;BME280;68279;48.964;14.502;2023-06-14T05:09:15;96821.28;;;9.96;93.43
78890;BME280;68279;48.964;14.502;2023-06-14T05:11:42;96824.38;;;10.08;93.50
78890;BME280;68279;48.964;14.502;2023-06-14T05:14:11;96816.31;;;10.13;93.25
78890;BME280;68279;48.964;14.502;2023-06-14T05:16:37;96822.31;;;10.29;92.06
78890;BME280;68279;48.964;14.502;2023-06-14T05:19:03;96823.94;;;10.54;92.03
78890;BME280;68279;48.964;14.502;2023-06-14T05:21:30;96822.44;;;10.67;91.03
78890;BME280;68279;48.964;14.502;2023-06-14T05:23:57;96819.00;;;10.85;91.24
78890;BME280;68279;48.964;14.502;2023-06-14T05:26:23;96819.91;;;10.99;90.19
78890;BME280;68279;48.964;14.502;2023-06-14T05:28:55;96826.81;;;11.24;87.91
78890;BME280;68279;48.964;14.502;2023-06-14T05:31:43;96825.94;;;11.48;87.84
78890;BME280;68279;48.964;14.502;2023-06-14T05:34:11;96826.72;;;11.67;84.94
78890;BME280;68279;48.964;14.502;2023-06-14T05:36:36;96832.16;;;11.62;85.20
78890;BME280;68279;48.964;14.502;2023-06-14T05:39:02;96823.94;;;11.91;85.71
78890;BME280;68279;48.964;14.502;2023-06-14T05:41:28;96829.72;;;11.98;83.45
78890;BME280;68279;48.964;14.502;2023-06-14T05:43:55;96833.16;;;12.17;82.89
78890;BME280;68279;48.964;14.502;2023-06-14T05:46:22;96835.53;;;12.19;84.85
78890;BME280;68279;48.964;14.502;2023-06-14T05:48:53;96841.03;;;12.41;81.06
78890;BME280;68279;48.964;14.502;2023-06-14T05:51:21;96840.97;;;12.60;82.95
78890;BME280;68279;48.964;14.502;2023-06-14T05:53:48;96836.78;;;12.68;79.28
78890;BME280;68279;48.964;14.502;2023-06-14T05:56:14;96835.78;;;12.50;82.36
78890;BME280;68279;48.964;14.502;2023-06-14T05:58:40;96840.78;;;12.84;80.94
78890;BME280;68279;48.964;14.502;2023-06-14T06:01:06;96830.91;;;13.21;81.61
78890;BME280;68279;48.964;14.502;2023-06-14T06:03:32;96834.28;;;13.13;77.99
78890;BME280;68279;48.964;14.502;2023-06-14T06:05:59;96845.44;;;13.20;79.24
78890;BME280;68279;48.964;14.502;2023-06-14T06:08:26;96844.72;;;13.14;80.50
78890;BME280;68279;48.964;14.502;2023-06-14T06:10:52;96850.91;;;12.73;80.41
78890;BME280;68279;48.964;14.502;2023-06-14T06:13:18;96847.69;;;12.44;81.67
78890;BME280;68279;48.964;14.502;2023-06-14T06:15:44;96849.13;;;12.55;82.54
78890;BME280;68279;48.964;14.502;2023-06-14T06:18:09;96855.16;;;12.88;83.91
78890;BME280;68279;48.964;14.502;2023-06-14T06:20:35;96852.22;;;13.53;81.27
78890;BME280;68279;48.964;14.502;2023-06-14T06:23:02;96852.25;;;13.98;79.11
78890;BME280;68279;48.964;14.502;2023-06-14T06:25:28;96859.69;;;14.46;79.50
78890;BME280;68279;48.964;14.502;2023-06-14T06:27:54;96855.59;;;14.88;76.65
78890;BME280;68279;48.964;14.502;2023-06-14T06:30:24;96859.69;;;14.77;76.22
78890;BME280;68279;48.964;14.502;2023-06-14T06:32:50;96866.97;;;14.23;77.55
78890;BME280;68279;48.964;14.502;2023-06-14T06:35:16;96863.88;;;14.38;75.59
78890;BME280;68279;48.964;14.502;2023-06-14T06:37:42;96867.63;;;14.51;74.42
78890;BME280;68279;48.964;14.502;2023-06-14T06:40:08;96872.00;;;14.69;74.82
78890;BME280;68279;48.964;14.502;2023-06-14T06:42:34;96880.56;;;14.71;74.20
78890;BME280;68279;48.964;14.502;2023-06-14T06:45:00;96885.34;;;14.83;73.65
78890;BME280;68279;48.964;14.502;2023-06-14T06:47:26;96877.00;;;14.93;73.51
78890;BME280;68279;48.964;14.502;2023-06-14T06:49:51;96890.56;;;15.28;74.30
78890;BME280;68279;48.964;14.502;2023-06-14T06:52:17;96880.94;;;14.87;72.36
78890;BME280;68279;48.964;14.502;2023-06-14T06:54:42;96885.53;;;14.87;72.77
78890;BME280;68279;48.964;14.502;2023-06-14T06:57:08;96892.34;;;14.93;73.28
78890;BME280;68279;48.964;14.502;2023-06-14T06:59:34;96889.09;;;14.73;73.69
78890;BME280;68279;48.964;14.502;2023-06-14T07:02:02;96891.50;;;15.23;72.69
78890;BME280;68279;48.964;14.502;2023-06-14T07:04:28;96892.31;;;15.24;70.45
78890;BME280;68279;48.964;14.502;2023-06-14T07:06:54;96894.38;;;15.36;70.35
78890;BME280;68279;48.964;14.502;2023-06-14T07:09:19;96893.44;;;15.32;70.55
78890;BME280;68279;48.964;14.502;2023-06-14T07:11:46;96899.97;;;15.39;69.45
78890;BME280;68279;48.964;14.502;2023-06-14T07:14:13;96900.19;;;15.95;69.10
78890;BME280;68279;48.964;14.502;2023-06-14T07:16:39;96898.75;;;16.06;68.47
78890;BME280;68279;48.964;14.502;2023-06-14T07:19:06;96905.84;;;15.50;67.48
78890;BME280;68279;48.964;14.502;2023-06-14T07:21:32;96904.63;;;15.65;66.30
78890;BME280;68279;48.964;14.502;2023-06-14T07:24:00;96913.34;;;16.05;66.67
78890;BME280;68279;48.964;14.502;2023-06-14T07:26:27;96907.53;;;16.67;65.05
78890;BME280;68279;48.964;14.502;2023-06-14T07:28:52;96916.09;;;16.86;66.92
78890;BME280;68279;48.964;14.502;2023-06-14T07:31:18;96922.41;;;16.99;65.25
78890;BME280;68279;48.964;14.502;2023-06-14T07:33:47;96922.72;;;16.16;65.82
78890;BME280;68279;48.964;14.502;2023-06-14T07:36:13;96922.41;;;15.92;66.22
78890;BME280;68279;48.964;14.502;2023-06-14T07:38:39;96918.72;;;15.70;67.81
78890;BME280;68279;48.964;14.502;2023-06-14T07:41:05;96931.97;;;16.96;67.81
78890;BME280;68279;48.964;14.502;2023-06-14T07:43:31;96925.75;;;17.34;60.06
78890;BME280;68279;48.964;14.502;2023-06-14T07:45:57;96927.56;;;16.66;61.13
78890;BME280;68279;48.964;14.502;2023-06-14T07:48:22;96937.19;;;17.02;61.54
78890;BME280;68279;48.964;14.502;2023-06-14T07:50:48;96920.78;;;17.07;64.58
78890;BME280;68279;48.964;14.502;2023-06-14T07:53:14;96927.09;;;17.49;62.85
78890;BME280;68279;48.964;14.502;2023-06-14T07:55:40;96916.59;;;17.18;60.43
78890;BME280;68279;48.964;14.502;2023-06-14T07:58:07;96919.75;;;16.90;62.30
78890;BME280;68279;48.964;14.502;2023-06-14T08:00:33;96916.78;;;16.57;62.72
78890;BME280;68279;48.964;14.502;2023-06-14T08:02:58;96917.44;;;16.54;63.89
78890;BME280;68279;48.964;14.502;2023-06-14T08:05:25;96926.47;;;16.50;62.84
78890;BME280;68279;48.964;14.502;2023-06-14T08:07:51;96924.78;;;16.36;63.56
78890;BME280;68279;48.964;14.502;2023-06-14T08:10:17;96916.66;;;16.54;62.66
78890;BME280;68279;48.964;14.502;2023-06-14T08:12:43;96923.31;;;17.12;61.39
78890;BME280;68279;48.964;14.502;2023-06-14T08:15:09;96926.72;;;17.89;63.02
78890;BME280;68279;48.964;14.502;2023-06-14T08:17:35;96926.25;;;18.07;60.20
78890;BME280;68279;48.964;14.502;2023-06-14T08:20:00;96924.13;;;18.46;67.53
78890;BME280;68279;48.964;14.502;2023-06-14T08:22:26;96917.53;;;19.01;61.71
78890;BME280;68279;48.964;14.502;2023-06-14T08:24:54;96920.25;;;19.50;61.51
78890;BME280;68279;48.964;14.502;2023-06-14T08:27:20;96925.47;;;19.67;53.67
78890;BME280;68279;48.964;14.502;2023-06-14T08:29:46;96921.63;;;19.19;56.75
78890;BME280;68279;48.964;14.502;2023-06-14T08:32:12;96927.03;;;19.68;50.48
78890;BME280;68279;48.964;14.502;2023-06-14T08:34:38;96924.09;;;20.14;52.81
78890;BME280;68279;48.964;14.502;2023-06-14T08:37:03;96931.38;;;20.50;56.53
78890;BME280;68279;48.964;14.502;2023-06-14T08:39:29;96936.25;;;20.04;55.66
78890;BME280;68279;48.964;14.502;2023-06-14T08:41:56;96942.38;;;19.03;61.98
78890;BME280;68279;48.964;14.502;2023-06-14T08:44:22;96929.59;;;20.01;54.62
78890;BME280;68279;48.964;14.502;2023-06-14T08:46:48;96946.00;;;20.89;54.54
78890;BME280;68279;48.964;14.502;2023-06-14T08:49:16;96943.31;;;19.80;52.29
78890;BME280;68279;48.964;14.502;2023-06-14T08:51:42;96935.31;;;19.72;51.46
78890;BME280;68279;48.964;14.502;2023-06-14T08:54:10;96941.81;;;18.98;51.68
78890;BME280;68279;48.964;14.502;2023-06-14T08:56:40;96929.50;;;19.24;49.31
78890;BME280;68279;48.964;14.502;2023-06-14T08:59:07;96935.63;;;20.79;54.66
78890;BME280;68279;48.964;14.502;2023-06-14T09:01:34;96930.94;;;21.39;55.71
78890;BME280;68279;48.964;14.502;2023-06-14T09:04:00;96934.94;;;21.61;53.26
78890;BME280;68279;48.964;14.502;2023-06-14T09:06:28;96936.28;;;21.51;54.11
78890;BME280;68279;48.964;14.502;2023-06-14T09:08:55;96933.31;;;21.56;50.18
78890;BME280;68279;48.964;14.502;2023-06-14T09:11:23;96936.50;;;19.99;48.65
78890;BME280;68279;48.964;14.502;2023-06-14T09:13:49;96937.44;;;20.59;51.82
78890;BME280;68279;48.964;14.502;2023-06-14T09:16:16;96932.38;;;20.05;45.87
78890;BME280;68279;48.964;14.502;2023-06-14T09:18:44;96929.50;;;20.26;46.77
78890;BME280;68279;48.964;14.502;2023-06-14T09:21:13;96927.31;;;20.87;48.46
78890;BME280;68279;48.964;14.502;2023-06-14T09:23:44;96926.88;;;20.85;50.18
78890;BME280;68279;48.964;14.502;2023-06-14T09:26:13;96924.44;;;21.28;47.32
78890;BME280;68279;48.964;14.502;2023-06-14T09:31:10;96930.78;;;21.47;47.89
78890;BME280;68279;48.964;14.502;2023-06-14T09:33:36;96932.44;;;21.87;47.28
78890;BME280;68279;48.964;14.502;2023-06-14T09:36:03;96933.56;;;21.51;49.42
78890;BME280;68279;48.964;14.502;2023-06-14T09:38:29;96930.72;;;20.84;46.53
78890;BME280;68279;48.964;14.502;2023-06-14T09:40:57;96925.72;;;20.02;49.92
78890;BME280;68279;48.964;14.502;2023-06-14T09:43:23;96927.84;;;21.09;47.55
78890;BME280;68279;48.964;14.502;2023-06-14T09:45:50;96928.13;;;21.35;45.03
78890;BME280;68279;48.964;14.502;2023-06-14T09:48:16;96935.44;;;22.56;44.45
78890;BME280;68279;48.964;14.502;2023-06-14T09:50:45;96931.47;;;22.73;40.59
78890;BME280;68279;48.964;14.502;2023-06-14T09:53:13;96939.69;;;22.53;42.17
78890;BME280;68279;48.964;14.502;2023-06-14T09:55:40;96934.16;;;21.60;45.09
78890;BME280;68279;48.964;14.502;2023-06-14T09:58:07;96942.66;;;20.24;46.58
78890;BME280;68279;48.964;14.502;2023-06-14T10:00:34;96936.09;;;20.25;45.26
78890;BME280;68279;48.964;14.502;2023-06-14T10:03:05;96937.66;;;20.26;44.97
78890;BME280;68279;48.964;14.502;2023-06-14T10:05:32;96933.03;;;20.26;44.16
78890;BME280;68279;48.964;14.502;2023-06-14T10:08:04;96936.53;;;20.55;43.97
78890;BME280;68279;48.964;14.502;2023-06-14T10:10:33;96930.94;;;19.95;43.68
78890;BME280;68279;48.964;14.502;2023-06-14T10:12:59;96931.91;;;19.75;46.59
78890;BME280;68279;48.964;14.502;2023-06-14T10:15:37;96928.97;;;20.48;43.31
78890;BME280;68279;48.964;14.502;2023-06-14T10:18:14;96922.75;;;21.07;44.59
78890;BME280;68279;48.964;14.502;2023-06-14T10:21:01;96919.91;;;21.32;41.57
78890;BME280;68279;48.964;14.502;2023-06-14T10:23:32;96923.06;;;20.58;41.22
78890;BME280;68279;48.964;14.502;2023-06-14T10:26:00;96925.47;;;21.55;41.88
78890;BME280;68279;48.964;14.502;2023-06-14T10:28:26;96928.47;;;21.18;41.65
78890;BME280;68279;48.964;14.502;2023-06-14T10:31:11;96923.03;;;21.49;39.32
78890;BME280;68279;48.964;14.502;2023-06-14T10:33:56;96925.59;;;21.27;42.44
78890;BME280;68279;48.964;14.502;2023-06-14T10:39:00;96918.84;;;22.06;42.47
78890;BME280;68279;48.964;14.502;2023-06-14T10:41:27;96924.47;;;22.14;40.85
78890;BME280;68279;48.964;14.502;2023-06-14T10:44:23;96915.47;;;21.59;41.93
78890;BME280;68279;48.964;14.502;2023-06-14T10:46:59;96916.72;;;22.97;45.45
78890;BME280;68279;48.964;14.502;2023-06-14T10:49:45;96922.00;;;23.09;44.07
78890;BME280;68279;48.964;14.502;2023-06-14T10:52:12;96912.63;;;23.06;41.48
78890;BME280;68279;48.964;14.502;2023-06-14T10:55:15;96915.38;;;23.10;39.55
78890;BME280;68279;48.964;14.502;2023-06-14T10:57:45;96913.38;;;23.79;37.93
78890;BME280;68279;48.964;14.502;2023-06-14T11:00:12;96905.81;;;23.99;41.79
78890;BME280;68279;48.964;14.502;2023-06-14T11:03:23;96907.97;;;24.13;42.05
78890;BME280;68279;48.964;14.502;2023-06-14T11:05:55;96905.06;;;23.72;40.92
78890;BME280;68279;48.964;14.502;2023-06-14T11:09:01;96899.41;;;24.18;43.69
78890;BME280;68279;48.964;14.502;2023-06-14T11:11:35;96902.06;;;23.81;41.38
78890;BME280;68279;48.964;14.502;2023-06-14T11:14:01;96898.41;;;23.69;36.88
78890;BME280;68279;48.964;14.502;2023-06-14T11:16:28;96899.78;;;23.33;42.13
78890;BME280;68279;48.964;14.502;2023-06-14T11:18:54;96892.72;;;23.06;37.79
78890;BME280;68279;48.964;14.502;2023-06-14T11:21:20;96890.03;;;23.32;38.78
78890;BME280;68279;48.964;14.502;2023-06-14T11:23:52;96900.13;;;24.11;43.48
78890;BME280;68279;48.964;14.502;2023-06-14T11:26:30;96901.53;;;22.76;44.09
78890;BME280;68279;48.964;14.502;2023-06-14T11:28:57;96897.19;;;23.67;40.96
78890;BME280;68279;48.964;14.502;2023-06-14T11:31:23;96894.50;;;23.44;42.67
78890;BME280;68279;48.964;14.502;2023-06-14T11:33:50;96889.19;;;23.81;41.50
78890;BME280;68279;48.964;14.502;2023-06-14T11:36:16;96891.38;;;23.98;46.02
78890;BME280;68279;48.964;14.502;2023-06-14T11:38:42;96893.16;;;24.84;40.84
78890;BME280;68279;48.964;14.502;2023-06-14T11:41:07;96887.72;;;24.17;39.42
78890;BME280;68279;48.964;14.502;2023-06-14T11:43:33;96891.84;;;24.04;42.39
78890;BME280;68279;48.964;14.502;2023-06-14T11:46:00;96895.53;;;24.49;41.91
78890;BME280;68279;48.964;14.502;2023-06-14T11:48:41;96889.19;;;22.40;39.79
78890;BME280;68279;48.964;14.502;2023-06-14T11:51:07;96889.66;;;21.53;40.79
78890;BME280;68279;48.964;14.502;2023-06-14T11:53:33;96881.88;;;21.35;43.42
78890;BME280;68279;48.964;14.502;2023-06-14T11:55:59;96874.66;;;21.59;46.23
78890;BME280;68279;48.964;14.502;2023-06-14T11:58:26;96881.63;;;21.40;41.75
78890;BME280;68279;48.964;14.502;2023-06-14T12:00:53;96875.06;;;21.61;43.84
78890;BME280;68279;48.964;14.502;2023-06-14T12:03:23;96880.13;;;21.97;43.44
78890;BME280;68279;48.964;14.502;2023-06-14T12:05:49;96880.84;;;21.40;41.76
78890;BME280;68279;48.964;14.502;2023-06-14T12:08:14;96878.22;;;22.17;50.14
78890;BME280;68279;48.964;14.502;2023-06-14T12:10:44;96867.75;;;22.61;47.86
78890;BME280;68279;48.964;14.502;2023-06-14T12:13:10;96870.09;;;22.40;49.47
78890;BME280;68279;48.964;14.502;2023-06-14T12:15:36;96866.88;;;23.49;42.66
78890;BME280;68279;48.964;14.502;2023-06-14T12:18:05;96861.97;;;23.88;42.52
78890;BME280;68279;48.964;14.502;2023-06-14T12:20:32;96872.41;;;23.53;45.57
78890;BME280;68279;48.964;14.502;2023-06-14T12:23:03;96866.41;;;24.00;48.80
78890;BME280;68279;48.964;14.502;2023-06-14T12:25:33;96868.28;;;25.52;43.63
78890;BME280;68279;48.964;14.502;2023-06-14T12:28:07;96862.81;;;25.52;39.88
78890;BME280;68279;48.964;14.502;2023-06-14T12:30:36;96867.22;;;26.43;39.29
78890;BME280;68279;48.964;14.502;2023-06-14T12:33:03;96865.75;;;27.17;31.85
78890;BME280;68279;48.964;14.502;2023-06-14T12:35:28;96863.00;;;27.03;39.68
78890;BME280;68279;48.964;14.502;2023-06-14T12:37:54;96870.19;;;26.13;38.90
78890;BME280;68279;48.964;14.502;2023-06-14T12:40:20;96873.09;;;25.14;32.20
78890;BME280;68279;48.964;14.502;2023-06-14T12:42:45;96866.06;;;23.22;35.94
78890;BME280;68279;48.964;14.502;2023-06-14T12:45:14;96867.22;;;23.70;36.67
78890;BME280;68279;48.964;14.502;2023-06-14T12:47:40;96863.69;;;22.94;40.61
78890;BME280;68279;48.964;14.502;2023-06-14T12:50:06;96873.25;;;22.42;39.11
78890;BME280;68279;48.964;14.502;2023-06-14T12:52:32;96875.78;;;21.93;39.00
78890;BME280;68279;48.964;14.502;2023-06-14T12:55:03;96876.88;;;21.72;40.22
78890;BME280;68279;48.964;14.502;2023-06-14T12:57:29;96879.09;;;21.32;42.64
78890;BME280;68279;48.964;14.502;2023-06-14T12:59:54;96869.94;;;21.24;40.21
78890;BME280;68279;48.964;14.502;2023-06-14T13:02:20;96869.47;;;21.54;41.01
78890;BME280;68279;48.964;14.502;2023-06-14T13:04:50;96880.22;;;20.99;41.07